Sns 147 — FGD5989 — position and weather

sailwx.info

Track history (hours):
 
Tides and Currents Weather Stations Pressure Air Temp Water Temp Dewpoint Dewpoint Depression Visibility Wind Speed Wind Dir Waves Ship Positions

Sns 147

Last reported at 2017-Nov-24 13:01 UTC. Time now 2017-Nov-24 13:03 UTC.
Position N 47°40' W 003°25'.

Length 15 m; draft 1.5 m.

Type: SAR. MMSI: 227574960.

Date/timePositionNaut miles runAvg speedWind from/ knotsBaromVisibWave heightAir tempDewpointWater temp
2017-Nov-24 13:01N 47°40' W 003°25'2 0.1
2017-Nov-23 08:48N 47°39' W 003°27'  
2017-Nov-19 15:41N 47°39' W 003°27'316.0
2017-Nov-19 15:31N 47°41' W 003°24'1 2.1
2017-Nov-19 15:00N 47°40' W 003°25'2 0.4
2017-Nov-19 10:32N 47°39' W 003°27'0 0.6
2017-Nov-19 10:30N 47°39' W 003°27'2 3.7
2017-Nov-19 10:00N 47°38' W 003°24'0 0.2
2017-Nov-19 09:30N 47°38' W 003°24'0 0.9
2017-Nov-19 09:00N 47°38' W 003°25'  
2017-Nov-16 19:29N 47°39' W 003°27'612.4
2017-Nov-16 19:01N 47°44' W 003°22'611.8
2017-Nov-16 18:30N 47°39' W 003°27'1 1.0
2017-Nov-16 18:00N 47°39' W 003°26'0 0.0
2017-Nov-15 14:06N 47°39' W 003°27'1 8.5
2017-Nov-15 14:00N 47°39' W 003°26'4 8.6
2017-Nov-15 13:30N 47°43' W 003°22'510.3
2017-Nov-15 13:00N 47°39' W 003°27'0 0.1
2017-Nov-15 12:22N 47°39' W 003°27'616.6
2017-Nov-15 12:00N 47°44' W 003°22'611.7
2017-Nov-15 11:30N 47°39' W 003°27'4 7.3
2017-Nov-15 11:00N 47°41' W 003°23'2 4.9
2017-Nov-15 10:31N 47°44' W 003°22'  
Track history (hours):
 
Tides and Currents Weather Stations Pressure Air Temp Water Temp Dewpoint Dewpoint Depression Visibility Wind Speed Wind Dir Waves Ship Positions

Sns 147

Last reported at 2017-Nov-24 13:01 UTC. Time now 2017-Nov-24 13:03 UTC.
Position N 47°40' W 003°25'.

Length 15 m; draft 1.5 m.

Type: SAR. MMSI: 227574960.

Date/timePositionNaut miles runAvg speedWind from/ knotsBaromVisibWave heightAir tempDewpointWater temp
2017-Nov-24 13:01N 47°40' W 003°25'2 0.1
2017-Nov-23 08:48N 47°39' W 003°27'  
2017-Nov-19 15:41N 47°39' W 003°27'316.0
2017-Nov-19 15:31N 47°41' W 003°24'1 2.1
2017-Nov-19 15:00N 47°40' W 003°25'2 0.4
2017-Nov-19 10:32N 47°39' W 003°27'0 0.6
2017-Nov-19 10:30N 47°39' W 003°27'2 3.7
2017-Nov-19 10:00N 47°38' W 003°24'0 0.2
2017-Nov-19 09:30N 47°38' W 003°24'0 0.9
2017-Nov-19 09:00N 47°38' W 003°25'  
2017-Nov-16 19:29N 47°39' W 003°27'612.4
2017-Nov-16 19:01N 47°44' W 003°22'611.8
2017-Nov-16 18:30N 47°39' W 003°27'1 1.0
2017-Nov-16 18:00N 47°39' W 003°26'0 0.0
2017-Nov-15 14:06N 47°39' W 003°27'1 8.5
2017-Nov-15 14:00N 47°39' W 003°26'4 8.6
2017-Nov-15 13:30N 47°43' W 003°22'510.3
2017-Nov-15 13:00N 47°39' W 003°27'0 0.1
2017-Nov-15 12:22N 47°39' W 003°27'616.6
2017-Nov-15 12:00N 47°44' W 003°22'611.7
2017-Nov-15 11:30N 47°39' W 003°27'4 7.3
2017-Nov-15 11:00N 47°41' W 003°23'2 4.9
2017-Nov-15 10:31N 47°44' W 003°22'  

Dump ship's entire track history